createdAt,value
2017-11-03T08:58:24.414Z,45.72
2017-11-03T08:58:56.604Z,45.93
2017-11-03T08:59:28.752Z,45.74
2017-11-03T09:00:00.868Z,45.91
2017-11-03T09:00:33.155Z,45.81
2017-11-03T09:01:05.226Z,45.72
2017-11-03T09:01:37.347Z,45.81
2017-11-03T09:02:09.564Z,45.93
2017-11-03T09:02:41.778Z,45.74
2017-11-03T09:03:13.960Z,46
2017-11-03T09:03:46.218Z,46.03
2017-11-03T09:04:18.320Z,46
2017-11-03T09:04:50.538Z,46
2017-11-03T09:05:22.670Z,46.68
2017-11-03T09:05:54.793Z,45.83
2017-11-03T09:06:26.939Z,46.68
2017-11-03T09:06:59.141Z,46
2017-11-03T09:07:31.399Z,46.1
2017-11-03T09:08:03.672Z,46.49
2017-11-03T09:08:35.968Z,46.68
2017-11-03T09:09:08.196Z,46.49
2017-11-03T09:09:40.404Z,46.58
2017-11-03T09:10:12.599Z,46.3
2017-11-03T09:10:44.794Z,46.39
2017-11-03T09:11:17.218Z,46.49
2017-11-03T09:11:49.525Z,46.42
2017-11-03T09:12:21.696Z,46.51
2017-11-03T09:12:53.802Z,46.1
2017-11-03T09:13:26.006Z,46
2017-11-03T09:13:58.209Z,46.51
2017-11-03T09:14:30.410Z,46.49
2017-11-03T09:15:02.748Z,46.49
2017-11-03T09:15:35.025Z,46.51
2017-11-03T09:16:07.087Z,46.22
2017-11-03T09:16:39.260Z,46.39
2017-11-03T09:17:11.568Z,45.91
2017-11-03T09:17:43.912Z,46.49
2017-11-03T09:18:16.194Z,46.42
2017-11-03T09:18:48.279Z,46.22
2017-11-03T09:19:20.457Z,46.42
2017-11-03T09:19:52.516Z,46.42
2017-11-03T09:20:24.746Z,46.42
2017-11-03T09:20:57.081Z,46.51
2017-11-03T09:21:29.244Z,46.03
2017-11-03T09:22:01.366Z,46.42
2017-11-03T09:22:33.731Z,46.51
2017-11-03T09:23:06.195Z,46.51
2017-11-03T09:23:38.423Z,46.51
2017-11-03T09:24:10.657Z,46.03
2017-11-03T09:24:42.845Z,46.42
2017-11-03T09:25:15.839Z,46.22
2017-11-03T09:25:47.954Z,46.42
2017-11-03T09:26:20.321Z,46.03
2017-11-03T09:26:52.457Z,46.42
2017-11-03T09:27:24.523Z,46.03
2017-11-03T09:27:56.640Z,45.93
2017-11-03T09:28:28.845Z,46.12
2017-11-03T09:29:00.946Z,46.12
2017-11-03T09:29:33.265Z,46.51
2017-11-03T09:30:05.404Z,46.42
2017-11-03T09:30:37.586Z,46.42
2017-11-03T09:31:09.791Z,46.42
2017-11-03T09:31:42.054Z,46.51
2017-11-03T09:32:14.273Z,46.12
2017-11-03T09:32:46.407Z,46.42
2017-11-03T09:33:18.516Z,46.42
2017-11-03T09:33:51.380Z,46.42
2017-11-03T09:34:23.565Z,46.51
2017-11-03T09:34:55.883Z,46.51
2017-11-03T09:35:28.079Z,46.32
2017-11-03T09:36:00.291Z,46.32
2017-11-03T09:36:32.434Z,46.12
2017-11-03T09:37:04.988Z,46.42
2017-11-03T09:37:37.258Z,46.42
2017-11-03T09:38:09.414Z,46.42
2017-11-03T09:38:41.506Z,46.42
2017-11-03T09:39:13.614Z,46.42
2017-11-03T09:39:45.707Z,46.42
2017-11-03T09:40:17.921Z,46.42
2017-11-03T09:40:56.916Z,46.51
2017-11-03T09:41:29.983Z,46.42
2017-11-03T09:42:02.210Z,46.42
2017-11-03T09:42:34.369Z,46.42
2017-11-03T09:43:06.611Z,46.51
2017-11-03T09:43:38.727Z,46.42
2017-11-03T09:44:13.823Z,46.32
2017-11-03T09:44:46.939Z,46.42
2017-11-03T09:45:19.085Z,46.51
2017-11-03T09:45:51.404Z,46.42
2017-11-03T09:46:23.600Z,46.42
2017-11-03T09:46:55.861Z,46.42
2017-11-03T09:47:28.041Z,46.51
2017-11-03T09:48:00.143Z,46.51
2017-11-03T09:48:32.466Z,46.42
2017-11-03T09:49:04.487Z,46.51
2017-11-03T09:49:36.582Z,46.42
2017-11-03T09:50:08.766Z,46.03
2017-11-03T09:50:40.800Z,46.12
2017-11-03T09:51:13.677Z,46.42
2017-11-03T09:51:48.304Z,46.44
2017-11-03T09:52:23.388Z,46.42
2017-11-03T09:52:57.016Z,46.42
2017-11-03T09:53:29.243Z,46.44
2017-11-03T09:54:01.351Z,46.42
2017-11-03T09:54:33.469Z,46.51
2017-11-03T09:55:05.523Z,46.44
2017-11-03T09:55:37.549Z,46.44
2017-11-03T09:56:09.687Z,46.44
2017-11-03T09:56:41.760Z,46.44
2017-11-03T09:57:14.014Z,46.42
2017-11-03T09:57:46.264Z,46.44
2017-11-03T09:58:18.408Z,46.42
2017-11-03T09:58:50.592Z,46.32
2017-11-03T09:59:22.692Z,46.44
2017-11-03T09:59:54.896Z,46.34
2017-11-03T10:00:27.048Z,46.44
2017-11-03T10:00:59.369Z,46.51
2017-11-03T10:01:31.513Z,46.44
2017-11-03T10:02:04.408Z,46.44
2017-11-03T10:02:36.636Z,46.44
2017-11-03T10:03:08.864Z,46.42
2017-11-03T10:03:40.950Z,46.34
2017-11-03T10:04:12.976Z,46.42
2017-11-03T10:04:45.266Z,46.44
2017-11-03T10:05:17.614Z,46.44
2017-11-03T10:05:49.800Z,46.44
2017-11-03T10:06:22.024Z,46.51
2017-11-03T10:06:54.268Z,46.44
2017-11-03T10:07:26.508Z,46.44
2017-11-03T10:08:00.521Z,46.34
2017-11-03T10:08:35.854Z,46.53
2017-11-03T10:09:07.980Z,46.44
2017-11-03T10:09:40.184Z,46.53
2017-11-03T10:10:12.476Z,46.53
2017-11-03T10:10:44.620Z,46.44
2017-11-03T10:11:16.860Z,46.53
2017-11-03T10:11:48.964Z,46.42
2017-11-03T10:12:21.196Z,46.53
2017-11-03T10:12:53.304Z,46.51
2017-11-03T10:13:25.593Z,46.51
2017-11-03T10:13:57.778Z,46.51
2017-11-03T10:14:29.948Z,46.53
2017-11-03T10:15:02.267Z,46.53
2017-11-03T10:15:34.372Z,46.44
2017-11-03T10:16:06.520Z,46.34
2017-11-03T10:16:38.678Z,46.53
2017-11-03T10:17:10.704Z,46.53
2017-11-03T10:17:42.862Z,46.63
2017-11-03T10:18:14.985Z,46.34
2017-11-03T10:18:47.317Z,46.53
2017-11-03T10:19:19.418Z,46.63
2017-11-03T10:19:51.678Z,46.44
2017-11-03T10:20:23.855Z,46.34
2017-11-03T10:20:56.043Z,46.63
2017-11-03T10:21:28.241Z,46.44
2017-11-03T10:22:00.432Z,46.53
2017-11-03T10:22:32.611Z,46.34
2017-11-03T10:23:04.792Z,46.73
2017-11-03T10:23:37.032Z,46.53
2017-11-03T10:24:09.136Z,46.53
2017-11-03T10:24:41.224Z,46.63
2017-11-03T10:25:13.443Z,46.63
2017-11-03T10:25:45.617Z,46.25
2017-11-03T10:26:18.042Z,46.22
2017-11-03T10:26:50.065Z,46.63
2017-11-03T10:27:22.215Z,46.63
2017-11-03T10:27:54.957Z,46.73
2017-11-03T10:28:26.969Z,46.61
2017-11-03T10:28:59.781Z,46.63
2017-11-03T10:29:31.976Z,46.63
2017-11-03T10:30:04.240Z,46.25
2017-11-03T10:30:36.317Z,46.44
2017-11-03T10:31:08.545Z,46.53
2017-11-03T10:31:40.696Z,46.73
2017-11-03T10:32:12.811Z,46.83
2017-11-03T10:32:44.927Z,46.15
2017-11-03T10:33:17.026Z,46.34
2017-11-03T10:33:49.164Z,46.34
2017-11-03T10:34:21.241Z,46.34
2017-11-03T10:34:53.473Z,46.34
2017-11-03T10:35:27.101Z,46.34
2017-11-03T10:35:59.366Z,46.34
2017-11-03T10:36:31.622Z,46.53
2017-11-03T10:37:03.778Z,46.44
2017-11-03T10:37:35.950Z,46.53
2017-11-03T10:38:08.173Z,46.73
2017-11-03T10:38:40.475Z,46.63
2017-11-03T10:39:22.394Z,46.34
2017-11-03T10:39:54.530Z,46.34
2017-11-03T10:40:26.644Z,46.34
2017-11-03T10:40:58.889Z,46.34
2017-11-03T10:41:31.044Z,46.34
2017-11-03T10:42:03.329Z,46.34
2017-11-03T10:42:35.564Z,46.34
2017-11-03T10:43:07.642Z,46.73
2017-11-03T10:43:39.769Z,46.25
2017-11-03T10:44:12.511Z,46.34
2017-11-03T10:44:44.727Z,46.15
2017-11-03T10:45:16.822Z,46.34
2017-11-03T10:45:48.940Z,46.25
2017-11-03T10:46:21.025Z,46.34
2017-11-03T10:46:53.258Z,46.25
2017-11-03T10:47:25.346Z,46.63
2017-11-03T10:47:57.428Z,46.25
2017-11-03T10:48:29.497Z,46.25
2017-11-03T10:49:01.711Z,46.63
2017-11-03T10:49:33.916Z,46.63
2017-11-03T10:50:06.102Z,46.63
2017-11-03T10:50:38.228Z,46.34
2017-11-03T10:51:10.446Z,46.63
2017-11-03T10:51:42.658Z,46.53
2017-11-03T10:52:14.875Z,46.44
2017-11-03T10:52:46.995Z,46.63
2017-11-03T10:53:19.069Z,46.44
2017-11-03T10:53:51.380Z,46.34
2017-11-03T10:54:23.523Z,46.53
2017-11-03T10:54:55.793Z,46.44
2017-11-03T10:55:27.856Z,46.53
2017-11-03T10:56:00.070Z,46.25
2017-11-03T10:56:32.181Z,46.15
2017-11-03T10:57:04.458Z,46.53
2017-11-03T10:57:36.698Z,46.34
2017-11-03T10:58:09.481Z,46.44
2017-11-03T10:58:41.621Z,46.25
2017-11-03T10:59:13.788Z,46.44
2017-11-03T10:59:46.007Z,46.25
2017-11-03T11:00:18.208Z,46.53
2017-11-03T11:00:50.957Z,46.34
2017-11-03T11:01:23.030Z,46.63
2017-11-03T11:01:55.184Z,46.63
2017-11-03T11:02:27.418Z,46.53
2017-11-03T11:02:59.445Z,46.63
2017-11-03T11:03:31.689Z,46.44
2017-11-03T11:04:03.800Z,46.53
2017-11-03T11:04:35.991Z,46.53
2017-11-03T11:05:07.988Z,46.53
2017-11-03T11:05:40.178Z,46.63
2017-11-03T11:06:12.339Z,46.53
2017-11-03T11:06:44.769Z,46.44
2017-11-03T11:07:16.969Z,46.73
2017-11-03T11:07:49.170Z,46.63
2017-11-03T11:08:21.322Z,46.53
2017-11-03T11:08:53.478Z,46.53
2017-11-03T11:09:25.712Z,46.53
2017-11-03T11:09:57.879Z,46.73
2017-11-03T11:10:29.957Z,46.44
2017-11-03T11:11:02.201Z,46.44
2017-11-03T11:11:34.723Z,46.44
2017-11-03T11:12:06.855Z,46.73
2017-11-03T11:12:38.949Z,46.73
2017-11-03T11:13:11.236Z,46.53
2017-11-03T11:13:43.438Z,46.63
2017-11-03T11:14:15.566Z,46.63
2017-11-03T11:14:47.615Z,46.44
2017-11-03T11:15:19.784Z,46.53
2017-11-03T11:15:52.045Z,46.73
2017-11-03T11:16:24.246Z,46.34
2017-11-03T11:16:56.394Z,46.63
2017-11-03T11:17:28.467Z,46.73
2017-11-03T11:18:00.589Z,46.34
2017-11-03T11:18:32.724Z,46.53
2017-11-03T11:19:04.866Z,46.73
2017-11-03T11:19:37.093Z,46.83
2017-11-03T11:20:09.225Z,46.44
2017-11-03T11:20:41.325Z,46.73
2017-11-03T11:21:13.471Z,46.63
2017-11-03T11:21:45.594Z,46.92
2017-11-03T11:22:17.731Z,46.92
2017-11-03T11:22:49.864Z,46.63
2017-11-03T11:23:22.032Z,46.92
2017-11-03T11:23:54.193Z,46.63
2017-11-03T11:24:26.319Z,46.63
2017-11-03T11:24:58.614Z,47.02
2017-11-03T11:25:30.694Z,46.92
2017-11-03T11:26:02.837Z,46.63
2017-11-03T11:26:34.985Z,46.92
2017-11-03T11:27:07.059Z,46.92
2017-11-03T11:27:39.149Z,46.92
2017-11-03T11:28:11.286Z,47.02
2017-11-03T11:28:43.404Z,46.73
2017-11-03T11:29:15.626Z,46.53
2017-11-03T11:29:48.092Z,46.63
2017-11-03T11:30:20.400Z,46.53
2017-11-03T11:30:52.544Z,47.02
2017-11-03T11:31:24.626Z,46.44
2017-11-03T11:31:56.762Z,46.73
2017-11-03T11:32:28.950Z,46.44
2017-11-03T11:33:01.031Z,46.83
2017-11-03T11:33:33.088Z,46.53
2017-11-03T11:34:05.189Z,46.73
2017-11-03T11:34:37.328Z,46.34
2017-11-03T11:35:09.424Z,46.73
2017-11-03T11:35:41.515Z,47.11
2017-11-03T11:36:13.714Z,47.11
2017-11-03T11:36:45.873Z,47.02
2017-11-03T11:37:18.059Z,46.92
2017-11-03T11:37:50.186Z,46.83
2017-11-03T11:38:22.470Z,46.83
2017-11-03T11:38:54.607Z,46.73
2017-11-03T11:39:26.868Z,46.92
2017-11-03T11:39:58.975Z,47.02
2017-11-03T11:40:31.109Z,46.83
2017-11-03T11:41:03.254Z,46.83
2017-11-03T11:41:35.543Z,46.73
2017-11-03T11:42:07.664Z,46.83
2017-11-03T11:42:39.746Z,46.92
2017-11-03T11:43:11.867Z,46.73
2017-11-03T11:43:43.963Z,46.83
2017-11-03T11:44:15.988Z,46.73
2017-11-03T11:44:48.052Z,47.02
2017-11-03T11:45:20.186Z,46.83
2017-11-03T11:45:52.285Z,46.73
2017-11-03T11:46:24.491Z,46.92
2017-11-03T11:46:56.645Z,46.92
2017-11-03T11:47:28.862Z,46.73
2017-11-03T11:48:01.157Z,47.02
2017-11-03T11:48:33.347Z,46.92
2017-11-03T11:49:05.538Z,46.83
2017-11-03T11:49:37.669Z,46.73
2017-11-03T11:50:09.911Z,46.83
2017-11-03T11:50:42.161Z,46.73
2017-11-03T11:51:14.420Z,46.83
2017-11-03T11:51:46.673Z,46.83
2017-11-03T11:52:18.870Z,46.83
2017-11-03T11:52:50.980Z,46.83
2017-11-03T11:53:23.269Z,46.83
2017-11-03T11:53:55.423Z,46.73
2017-11-03T11:54:27.563Z,46.92
2017-11-03T11:54:59.708Z,46.92
2017-11-03T11:55:31.994Z,47.02
2017-11-03T11:56:04.096Z,46.83
2017-11-03T11:56:36.375Z,46.83
2017-11-03T11:57:08.624Z,47.02
2017-11-03T11:57:40.688Z,47.02
2017-11-03T11:58:12.929Z,46.92
2017-11-03T11:58:44.994Z,46.83
2017-11-03T11:59:17.133Z,47.21
2017-11-03T11:59:49.268Z,47.11
2017-11-03T12:00:21.401Z,46.92
2017-11-03T12:00:53.636Z,47.02
2017-11-03T12:01:25.796Z,47.11
2017-11-03T12:01:57.877Z,47.21
2017-11-03T12:02:30.035Z,46.83
2017-11-03T12:03:02.321Z,47.11
2017-11-03T12:03:34.551Z,46.83
2017-11-03T12:04:06.804Z,46.92
2017-11-03T12:04:39.029Z,47.11
2017-11-03T12:05:11.196Z,46.73
2017-11-03T12:05:43.329Z,46.83
2017-11-03T12:06:15.517Z,47.11
2017-11-03T12:06:47.693Z,46.83
2017-11-03T12:07:19.756Z,46.83
2017-11-03T12:07:51.858Z,46.73
2017-11-03T12:08:23.945Z,46.83
2017-11-03T12:08:56.027Z,46.83
2017-11-03T12:09:28.221Z,47.31
2017-11-03T12:10:00.401Z,47.41
2017-11-03T12:10:32.678Z,47.31
2017-11-03T12:11:04.823Z,47.11
2017-11-03T12:11:37.127Z,47.31
2017-11-03T12:12:09.348Z,47.02
2017-11-03T12:12:41.544Z,46.92
2017-11-03T12:13:13.618Z,47.31
2017-11-03T12:13:45.764Z,47.21
2017-11-03T12:14:17.840Z,46.7
2017-11-03T12:14:50.045Z,47.11
2017-11-03T12:15:22.181Z,47.21
2017-11-03T12:15:54.330Z,47.02
2017-11-03T12:16:26.482Z,47.28
2017-11-03T12:16:58.620Z,47.19
2017-11-03T12:17:30.735Z,47.11
2017-11-03T12:18:02.957Z,47.21
2017-11-03T12:18:35.215Z,47.11
2017-11-03T12:19:07.417Z,47.19
2017-11-03T12:19:39.567Z,47.19
2017-11-03T12:20:11.705Z,47.19
2017-11-03T12:20:43.829Z,47.28
2017-11-03T12:21:16.113Z,47.28
2017-11-03T12:21:48.404Z,47.19
2017-11-03T12:22:20.494Z,47.19
2017-11-03T12:22:52.650Z,47.19
2017-11-03T12:23:24.749Z,47.21
2017-11-03T12:23:57.076Z,47.31
2017-11-03T12:24:29.331Z,47.19
2017-11-03T12:25:01.429Z,47.28
2017-11-03T12:25:33.599Z,47.19
2017-11-03T12:26:05.829Z,47.28
2017-11-03T12:26:37.882Z,47.09
2017-11-03T12:27:10.013Z,47.38
2017-11-03T12:27:42.232Z,47.19
2017-11-03T12:28:14.310Z,47.19
2017-11-03T12:28:46.533Z,47.19
2017-11-03T12:29:18.915Z,47.09
2017-11-03T12:29:51.094Z,47.09
2017-11-03T12:30:23.244Z,47.38
2017-11-03T12:30:55.274Z,47.48
2017-11-03T12:31:27.468Z,47.38
2017-11-03T12:31:59.666Z,47.19
2017-11-03T12:32:31.921Z,47.28
2017-11-03T12:33:03.994Z,47.19
2017-11-03T12:33:36.211Z,47.38
2017-11-03T12:34:09.084Z,47.48
2017-11-03T12:34:41.130Z,47.19
2017-11-03T12:35:13.366Z,47.48
2017-11-03T12:35:45.601Z,47.38
2017-11-03T12:36:17.777Z,47.38
2017-11-03T12:36:49.844Z,47.48
2017-11-03T12:37:22.181Z,47.58
2017-11-03T12:37:54.303Z,47.38
2017-11-03T12:38:26.532Z,47.38
2017-11-03T12:38:58.675Z,47.48
2017-11-03T12:39:30.744Z,47.48
2017-11-03T12:40:02.985Z,47.58
2017-11-03T12:40:35.250Z,47.48
2017-11-03T12:41:07.544Z,47.58
2017-11-03T12:41:39.730Z,47.38
2017-11-03T12:42:11.906Z,47.58
2017-11-03T12:42:44.061Z,47.28
2017-11-03T12:43:16.201Z,47.48
2017-11-03T12:43:48.881Z,47.48
2017-11-03T12:44:21.160Z,47.48
2017-11-03T12:44:53.332Z,47.58
2017-11-03T12:45:25.451Z,47.48
2017-11-03T12:45:57.681Z,47.48
2017-11-03T12:46:29.870Z,47.67
2017-11-03T12:47:02.037Z,47.67
2017-11-03T12:47:34.274Z,47.67
2017-11-03T12:48:06.488Z,47.48
2017-11-03T12:48:38.634Z,47.58
2017-11-03T12:49:10.824Z,47.45
2017-11-03T12:49:42.919Z,47.45
2017-11-03T12:50:15.056Z,47.48
2017-11-03T12:50:47.229Z,47.48
2017-11-03T12:51:19.328Z,47.55
2017-11-03T12:51:51.517Z,47.45
2017-11-03T12:52:23.719Z,47.45
2017-11-03T12:52:55.911Z,47.58
2017-11-03T12:53:28.040Z,47.45
2017-11-03T12:54:00.226Z,47.65
2017-11-03T12:54:32.332Z,47.55
2017-11-03T12:55:04.474Z,47.67
2017-11-03T12:55:36.639Z,47.67
2017-11-03T12:56:08.729Z,47.55
2017-11-03T12:56:40.794Z,47.65
2017-11-03T12:57:13.054Z,47.74
2017-11-03T12:57:45.224Z,47.65
2017-11-03T12:58:17.375Z,47.74
2017-11-03T12:58:49.601Z,47.84
2017-11-03T12:59:21.677Z,47.65
2017-11-03T12:59:53.840Z,47.77
2017-11-03T13:00:25.954Z,47.65
2017-11-03T13:00:58.132Z,47.55
2017-11-03T13:01:30.317Z,47.65
2017-11-03T13:02:02.517Z,47.74
2017-11-03T13:02:34.785Z,47.65
2017-11-03T13:03:06.936Z,47.65
2017-11-03T13:03:39.165Z,47.74
2017-11-03T13:04:11.249Z,47.74
2017-11-03T13:04:43.307Z,47.74
2017-11-03T13:05:15.436Z,47.65
2017-11-03T13:05:47.614Z,47.65
2017-11-03T13:06:19.744Z,47.65
2017-11-03T13:06:51.928Z,47.65
2017-11-03T13:07:24.197Z,47.84
2017-11-03T13:07:56.269Z,47.74
2017-11-03T13:08:28.462Z,47.74
2017-11-03T13:09:00.720Z,47.74
2017-11-03T13:09:32.780Z,47.84
2017-11-03T13:10:04.807Z,47.74
2017-11-03T13:10:37.023Z,47.84
2017-11-03T13:11:09.169Z,47.84
2017-11-03T13:11:41.262Z,47.94
2017-11-03T13:12:13.425Z,47.84
2017-11-03T13:12:45.613Z,47.84
2017-11-03T13:13:17.750Z,47.94
2017-11-03T13:13:49.819Z,47.84
2017-11-03T13:14:21.988Z,47.94
2017-11-03T13:14:54.056Z,47.84
2017-11-03T13:15:26.138Z,47.74
2017-11-03T13:15:58.313Z,47.74
2017-11-03T13:16:30.446Z,47.94
2017-11-03T13:17:02.637Z,47.94
2017-11-03T13:17:34.934Z,47.84
2017-11-03T13:18:07.077Z,47.84
2017-11-03T13:18:39.228Z,47.84
2017-11-03T13:19:11.466Z,47.94
2017-11-03T13:19:43.495Z,47.94
2017-11-03T13:20:15.555Z,47.84
2017-11-03T13:20:47.717Z,48.03
2017-11-03T13:21:19.972Z,47.94
2017-11-03T13:21:51.989Z,47.94
2017-11-03T13:22:24.116Z,48.03
2017-11-03T13:22:56.224Z,48.13
2017-11-03T13:23:28.318Z,48.03
2017-11-03T13:24:00.492Z,47.84
2017-11-03T13:24:32.575Z,47.94
2017-11-03T13:25:04.762Z,48.03
2017-11-03T13:25:36.902Z,48.03
2017-11-03T13:26:09.042Z,48.03
2017-11-03T13:26:41.250Z,47.94
2017-11-03T13:27:13.334Z,48.03
2017-11-03T13:27:45.553Z,48.03
2017-11-03T13:28:17.696Z,47.94
2017-11-03T13:28:49.746Z,47.94
2017-11-03T13:29:21.878Z,48.03
2017-11-03T13:29:53.952Z,48.03
2017-11-03T13:30:26.037Z,48.13
2017-11-03T13:30:58.085Z,47.94
2017-11-03T13:31:30.127Z,47.84
2017-11-03T13:32:02.311Z,48.03
2017-11-03T13:32:34.335Z,47.94
2017-11-03T13:33:06.528Z,48.03
2017-11-03T13:33:38.663Z,48.11
2017-11-03T13:34:10.930Z,48.01
2017-11-03T13:34:43.172Z,47.94
2017-11-03T13:35:15.207Z,48.23
2017-11-03T13:35:47.943Z,47.91
2017-11-03T13:36:21.057Z,47.94
2017-11-03T13:36:53.206Z,48.13
2017-11-03T13:37:25.382Z,48.01
2017-11-03T13:37:57.466Z,47.94
2017-11-03T13:38:29.618Z,48.01
2017-11-03T13:39:01.830Z,48.01
2017-11-03T13:39:34.032Z,48.01
2017-11-03T13:40:06.232Z,48.01
2017-11-03T13:40:38.467Z,48.01
2017-11-03T13:41:10.582Z,48.01
2017-11-03T13:41:42.828Z,48.11
2017-11-03T13:42:15.103Z,48.21
2017-11-03T13:42:47.236Z,48.21
2017-11-03T13:43:19.411Z,48.21
2017-11-03T13:43:51.627Z,48.3
2017-11-03T13:44:23.828Z,48.3
2017-11-03T13:44:56.033Z,48.11
2017-11-03T13:45:28.167Z,48.39
2017-11-03T13:46:00.507Z,48.11
2017-11-03T13:46:32.606Z,48.3
2017-11-03T13:47:04.674Z,48.3
2017-11-03T13:47:36.952Z,48.3
2017-11-03T13:48:09.101Z,48.3
2017-11-03T13:48:41.390Z,48.39
2017-11-03T13:49:13.528Z,48.21
2017-11-03T13:49:45.690Z,48.21
2017-11-03T13:50:17.807Z,48.21
2017-11-03T13:50:49.960Z,48.3
2017-11-03T13:51:22.106Z,48.21
2017-11-03T13:51:54.239Z,48.21
2017-11-03T13:52:26.367Z,48.3
2017-11-03T13:52:58.466Z,48.3
2017-11-03T13:53:30.649Z,48.3
2017-11-03T13:54:02.746Z,48.21
2017-11-03T13:54:34.911Z,48.3
2017-11-03T13:55:07.024Z,48.3
2017-11-03T13:55:39.251Z,48.3
2017-11-03T13:56:11.960Z,48.3
2017-11-03T13:56:44.208Z,48.3
2017-11-03T13:57:16.474Z,48.3
2017-11-03T13:57:48.538Z,48.3
2017-11-03T13:58:20.765Z,48.39
2017-11-03T13:58:52.780Z,48.39
2017-11-03T13:59:24.932Z,48.3
2017-11-03T13:59:57.064Z,48.3
2017-11-03T14:00:29.159Z,48.21
2017-11-03T14:01:01.288Z,48.39
2017-11-03T14:01:33.497Z,48.21
2017-11-03T14:02:05.629Z,48.3
2017-11-03T14:02:37.759Z,48.39
2017-11-03T14:03:09.854Z,48.39
2017-11-03T14:03:41.988Z,48.3
2017-11-03T14:04:14.129Z,48.3
2017-11-03T14:04:46.270Z,48.39
2017-11-03T14:05:18.359Z,48.3
2017-11-03T14:05:50.440Z,48.3
2017-11-03T14:06:22.573Z,48.49
2017-11-03T14:06:54.755Z,48.49
2017-11-03T14:07:26.999Z,48.3
2017-11-03T14:07:59.026Z,48.3
2017-11-03T14:08:31.168Z,48.39
2017-11-03T14:09:03.329Z,48.39
2017-11-03T14:09:35.597Z,48.49
2017-11-03T14:10:07.746Z,48.47
2017-11-03T14:10:39.899Z,48.59
2017-11-03T14:11:12.003Z,48.49
2017-11-03T14:11:44.201Z,48.39
2017-11-03T14:12:16.277Z,48.57
2017-11-03T14:12:48.346Z,48.49
2017-11-03T14:13:20.598Z,48.39
2017-11-03T14:13:52.701Z,48.39
2017-11-03T14:14:24.962Z,48.59
2017-11-03T14:14:57.215Z,48.3
2017-11-03T14:15:29.287Z,48.49
2017-11-03T14:16:01.359Z,48.47
2017-11-03T14:16:33.503Z,48.49
2017-11-03T14:17:05.589Z,48.47
2017-11-03T14:17:37.798Z,48.57
2017-11-03T14:18:09.885Z,48.47
2017-11-03T14:18:41.975Z,48.39
2017-11-03T14:19:14.044Z,48.28
2017-11-03T14:19:46.236Z,48.57
2017-11-03T14:20:18.422Z,48.37
2017-11-03T14:20:50.582Z,48.28
2017-11-03T14:21:22.664Z,48.37
2017-11-03T14:21:54.700Z,48.76
2017-11-03T14:22:26.969Z,48.37
2017-11-03T14:22:59.128Z,48.57
2017-11-03T14:23:31.408Z,48.66
2017-11-03T14:24:03.597Z,48.57
2017-11-03T14:24:35.793Z,48.57
2017-11-03T14:25:08.626Z,48.66
2017-11-03T14:25:40.756Z,48.66
2017-11-03T14:26:12.949Z,48.66
2017-11-03T14:26:45.134Z,48.37
2017-11-03T14:27:17.261Z,48.66
2017-11-03T14:27:49.420Z,48.57
2017-11-03T14:28:21.506Z,48.37
2017-11-03T14:28:53.691Z,48.57
2017-11-03T14:29:25.906Z,48.66
2017-11-03T14:29:58.041Z,48.66
2017-11-03T14:30:30.249Z,48.57
2017-11-03T14:31:02.321Z,48.76
2017-11-03T14:31:34.398Z,48.76
2017-11-03T14:32:06.534Z,48.76
2017-11-03T14:32:38.720Z,48.76
2017-11-03T14:33:10.743Z,48.66
2017-11-03T14:33:42.983Z,48.76
2017-11-03T14:34:15.075Z,48.66
2017-11-03T14:34:47.275Z,48.76
2017-11-03T14:35:19.975Z,48.57
2017-11-03T14:35:52.108Z,48.57
2017-11-03T14:36:24.287Z,48.76
2017-11-03T14:36:56.948Z,48.76
2017-11-03T14:37:29.086Z,48.47
2017-11-03T14:38:01.472Z,48.76
2017-11-03T14:38:33.568Z,48.76
2017-11-03T14:39:05.701Z,48.57
2017-11-03T14:39:37.831Z,48.47
2017-11-03T14:40:10.642Z,48.66
2017-11-03T14:40:42.740Z,48.66
2017-11-03T14:41:14.945Z,48.66
2017-11-03T14:41:47.110Z,48.66
2017-11-03T14:42:19.251Z,48.66
2017-11-03T14:42:51.479Z,48.66
2017-11-03T14:43:23.654Z,48.66
2017-11-03T14:43:55.798Z,48.66
2017-11-03T14:44:27.986Z,48.66
2017-11-03T14:45:00.083Z,48.86
2017-11-03T14:45:32.241Z,48.95
2017-11-03T14:46:04.372Z,48.86
2017-11-03T14:46:36.575Z,48.66
2017-11-03T14:47:08.640Z,48.95
2017-11-03T14:47:40.783Z,48.76
2017-11-03T14:48:12.922Z,48.95
2017-11-03T14:48:45.106Z,48.76
2017-11-03T14:49:17.200Z,48.76
2017-11-03T14:49:49.911Z,48.86
2017-11-03T14:50:22.120Z,48.66
2017-11-03T14:50:54.252Z,48.66
2017-11-03T14:51:26.504Z,48.76
2017-11-03T14:51:58.791Z,48.95
2017-11-03T14:52:31.065Z,48.57
2017-11-03T14:53:03.122Z,48.66
2017-11-03T14:53:35.172Z,48.66
2017-11-03T14:54:07.369Z,48.66
2017-11-03T14:54:39.586Z,48.86
2017-11-03T14:55:11.658Z,48.66
2017-11-03T14:55:43.843Z,48.95
2017-11-03T14:56:15.938Z,48.95
2017-11-03T14:56:48.033Z,48.95
2017-11-03T14:57:20.105Z,48.95
2017-11-03T14:57:52.249Z,48.66
2017-11-03T14:58:24.276Z,48.86
2017-11-03T14:58:56.398Z,48.86
2017-11-03T14:59:28.601Z,48.95
2017-11-03T15:00:00.781Z,48.76
2017-11-03T15:00:32.987Z,48.95
2017-11-03T15:01:05.285Z,48.93
2017-11-03T15:01:37.502Z,48.86
2017-11-03T15:02:09.627Z,48.93
2017-11-03T15:02:41.830Z,48.93
2017-11-03T15:03:13.916Z,48.93
2017-11-03T15:03:46.074Z,48.83
2017-11-03T15:04:18.195Z,49.02
2017-11-03T15:04:50.394Z,48.93
2017-11-03T15:05:22.412Z,48.93
2017-11-03T15:05:54.634Z,48.83
2017-11-03T15:06:26.785Z,48.86
2017-11-03T15:06:58.881Z,48.74
2017-11-03T15:07:31.062Z,49.02
2017-11-03T15:08:03.244Z,48.83
2017-11-03T15:08:35.495Z,48.74
2017-11-03T15:09:07.737Z,48.93
2017-11-03T15:09:39.872Z,49.12
2017-11-03T15:10:11.931Z,49.02
2017-11-03T15:10:44.085Z,48.93
2017-11-03T15:11:16.145Z,49.02
2017-11-03T15:11:48.219Z,48.93
2017-11-03T15:12:20.264Z,49.02
2017-11-03T15:12:52.499Z,48.93
2017-11-03T15:13:24.682Z,48.86
2017-11-03T15:13:56.766Z,49.02
2017-11-03T15:14:28.901Z,49.02
2017-11-03T15:15:01.186Z,48.74
2017-11-03T15:15:33.463Z,48.93
2017-11-03T15:16:05.603Z,48.83
2017-11-03T15:16:37.776Z,48.93
2017-11-03T15:17:10.619Z,48.93
2017-11-03T15:17:42.798Z,49.12
2017-11-03T15:18:14.932Z,49.12
2017-11-03T15:18:47.112Z,48.74
2017-11-03T15:19:19.162Z,48.64
2017-11-03T15:19:51.286Z,49.02
2017-11-03T15:20:23.395Z,49.02
2017-11-03T15:20:55.562Z,49.22
2017-11-03T15:21:27.845Z,49.02
2017-11-03T15:21:59.934Z,49.12
2017-11-03T15:22:32.066Z,48.95
2017-11-03T15:23:04.950Z,49.12
2017-11-03T15:23:36.980Z,48.93
2017-11-03T15:24:09.225Z,49.24
2017-11-03T15:24:41.390Z,49.02
2017-11-03T15:25:13.537Z,49.22
2017-11-03T15:25:45.718Z,49.02
2017-11-03T15:26:17.928Z,48.93
2017-11-03T15:26:50.124Z,49.32
2017-11-03T15:27:22.245Z,49.22
2017-11-03T15:27:54.247Z,49.22
2017-11-03T15:28:26.459Z,49.12
2017-11-03T15:28:58.602Z,49.12
2017-11-03T15:29:30.815Z,48.93
2017-11-03T15:30:02.965Z,48.93
2017-11-03T15:30:35.088Z,49.12
2017-11-03T15:31:07.164Z,48.93
2017-11-03T15:31:39.293Z,49.02
2017-11-03T15:32:11.538Z,49.02
2017-11-03T15:32:43.673Z,48.93
2017-11-03T15:33:15.874Z,49.12
2017-11-03T15:33:48.022Z,49.22
2017-11-03T15:34:20.247Z,49.02
2017-11-03T15:34:52.987Z,48.93
2017-11-03T15:35:25.263Z,49.12
2017-11-03T15:35:57.426Z,49.22
2017-11-03T15:36:29.535Z,49.22
2017-11-03T15:37:01.717Z,49.32
2017-11-03T15:37:33.922Z,49.12
2017-11-03T15:38:06.051Z,49.32
2017-11-03T15:38:38.420Z,49.32
2017-11-03T15:39:11.078Z,49.32
2017-11-03T15:39:43.232Z,49.32
2017-11-03T15:40:15.243Z,49.22
2017-11-03T15:40:47.441Z,48.93
2017-11-03T15:41:19.640Z,49.12
2017-11-03T15:41:51.823Z,49.22
2017-11-03T15:42:23.942Z,49.22
2017-11-03T15:42:56.109Z,49.22
2017-11-03T15:43:28.181Z,49.41
2017-11-03T15:44:00.310Z,49.12
2017-11-03T15:44:32.526Z,49.12
2017-11-03T15:45:04.669Z,49.32
2017-11-03T15:45:36.855Z,49.12
2017-11-03T15:46:09.052Z,49.32
2017-11-03T15:46:41.181Z,49.41
2017-11-03T15:47:13.307Z,49.12
2017-11-03T15:47:45.369Z,49.12
2017-11-03T15:48:17.548Z,49.32
2017-11-03T15:48:49.652Z,49.12
2017-11-03T15:49:21.805Z,49.32
2017-11-03T15:49:54.040Z,49.41
2017-11-03T15:50:26.126Z,49.32
2017-11-03T15:50:58.203Z,49.22
2017-11-03T15:51:30.442Z,49.22
2017-11-03T15:52:02.643Z,49.41
2017-11-03T15:52:34.822Z,49.32
2017-11-03T15:53:07.064Z,49.41
2017-11-03T15:53:39.158Z,49.32
2017-11-03T15:54:11.236Z,49.41